Rakitna

Učna pot


Verjetnost toče več informacij Hail probability


Požarna ogroženost več informacij Fire risk


Moja kamera več informacij My webcam


Rakitna DRSI več informacij Rakitna DRSI


Obiščite še:

Template documentacija
in prenos

in še drugo stran



Posebna pozornost v zvezi z vremenskimi dogajanji ni potrebna.    Posebna pozornost v zvezi z vremenskimi dogajanji ni potrebna.

METAR v bližini

   
LJLJ - Ljubljana
Posodobljeno: 17-11-2017 18:00
oblačno  
oblačno  
   Veter: JV 5.6 km/h
Veter: JV 5.6 km/h
Temperatura: 6°C
Občutek mraza: 5°C
Točka rosišča: 4°C
Vlažnost: 87%
Zračni tlak: 1021 hPa
Oblaki: oblačno
Vidljivost: več kot 10 km
Podrobnosti o oblakih: pretežno oblačno 2000 ft,
oblačno 5000 ft
LJLJ 171700Z 13003KT 9999 BKN020 OVC050 06/04 Q1021 NOSIG
LJCE - Cerklje ob Krki
Posodobljeno: 17-11-2017 18:00
rosenje, dež, oblačno  
rosenje, dež, oblačno  
   Veter: Vzhod 9.3 km/h
Veter: Vzhod 9.3 km/h
Temperatura: 5°C
Občutek mraza: 3°C
Točka rosišča: 3°C
Vlažnost: 87%
Zračni tlak: 1023 hPa
Oblaki: oblačno
Vidljivost: 9 km
Podrobnosti o oblakih: oblačno 1200 ft
LJCE 171700Z AUTO 10005KT 9000 -SHRA OVC012/// 05/03 Q1023
LJMB - Maribor
Posodobljeno: 17-11-2017 18:00
rahel dež, meglica, oblačno  
rahel dež, meglica, oblačno  
   Veter: SV 5.6 km/h
Veter: SV 5.6 km/h
Temperatura: 4°C
Občutek mraza: 3°C
Točka rosišča: 3°C
Vlažnost: 93%
Zračni tlak: 1023 hPa
Oblaki: oblačno
Vidljivost: 4 km
Podrobnosti o oblakih: pretežno oblačno 700 ft,
oblačno 1300 ft
LJMB 171700Z 05003KT 4000 -RA BR BKN007 OVC013 04/03 Q1023
LJPZ - Portorož
Posodobljeno: 17-11-2017 18:00
jasno  
jasno  
   Veter: Vzhod 7.4 km/h
Veter: Vzhod 7.4 km/h
Temperatura: 10°C
Občutek mraza: 9°C
Točka rosišča: 4°C
Vlažnost: 67%
Zračni tlak: 1018 hPa
Vidljivost: več kot 10 km
Podrobnosti o oblakih: jasno
LJPZ 171700Z 08004KT 040V110 CAVOK 10/04 Q1018
LDRI - Rijeka, Airport, Croatia
Posodobljeno: 17-11-2017 18:30
nekaj oblakov  
nekaj oblakov  
   Veter: VSV 25.9 km/h<br />Gust to 25.9 km/h
Veter: VSV 25.9 km/h
Gust to 25.9 km/h
Temperatura: 10°C
Občutek mraza: 7°C
Točka rosišča: 2°C
Vlažnost: 58%
Zračni tlak: 1016 hPa
Oblaki: nekaj oblakov
Vidljivost: več kot 10 km
Podrobnosti o oblakih: nekaj oblakov 4300 ft
LDRI 171730Z 06014G26KT 340V130 9999 FEW043 10/02 Q1016
LOWK - Klagenfurt, Airport, Avstia
Posodobljeno: 17-11-2017 18:20
rahel pršec, pretežno oblačno  
rahel pršec, pretežno oblačno  
   Veter: različen 3.7 km/h
Veter: različen 3.7 km/h
Temperatura: 4°C
Točka rosišča: 3°C
Vlažnost: 93%
Zračni tlak: 1022 hPa
Oblaki: pretežno oblačno
Vidljivost: več kot 10 km
Podrobnosti o oblakih: nekaj oblakov 1200 ft,
pretežno oblačno 8000 ft
LOWK 171720Z VRB02KT 9999 -DZ FEW012 BKN080 04/03 Q1022 R10L/19//95 NOSIG

Script developed by  Saratoga-weather.org Adapted for the template by  Weerstation Leuven

Vremenski podatki so objavljeni na:

Weather Underground

WeatherlinkIP

MapView

Geostik

Slovenia weather network

Oprema, ki se uporablja:

Vremenska postaja
Davis VP2+ ventilirana

Vremenski program
WeatherLink

Vremenski server
Shuttle XS35V4

Ponudnik
Vremensko društvo ZEVS

Davis VP2+ ventilirana

WeatherLink

Shuttle XS35V4

Vremensko društvo ZEVS

Meteorološki podatki vremenske postaje Rakitna so neuradni, meteorološka postaja sama pa ni del državne mreže Agencije Republike Slovenije za okolje (ARSO),
je pa vključena v Vremensko društvo ZEVS. Prikazani podatki so izmerjeni točno, vendar so zgolj informativni in nimajo značaja uradnega podatka.

Podatke meri vremenska postaja "Davis VP2+ ventilirana" od 05.03.2011 dalje.

Opozarjamo, da ne prevzamemo odgovornosti za morebitno nastalo škodo, ki bi nastala zaradi odločitve, sprejete na osnovi teh podatkov!